Egg Harbor City, New Jersey
Current Conditions -  °F | °C
As of 4:54 AM on Sunday 21 Dec 2014 (Local Time) from KACY Reporting Station
Broken Clouds Broken Clouds  
Wind Chill: 28°   Ceiling: 7500
Heat Index: 28°   Visibility: 10mi
Dew Point: 22°   Wind: 0mph
Humidity: 78%   Direction: NA
Pressure: 30.29"   Gusts: NA
Location:  39.53°N, 74.65°W
Report Text: KACY 210954Z 00000KT 10SM BKN075 M02/M06 A3029 RMK AO2 SLP258 T10221056
Loading
Personal Weather Stations






























Interactive Weather Map New forecast layout! Learn more

10-Day Weather Forecast

Advertisements
Track Severe Weather on mobile